createdAt,value
2023-02-09T10:02:33.237Z,5.50
2023-02-09T10:05:21.810Z,5.50
2023-02-09T10:08:09.848Z,5.50
2023-02-09T10:11:16.074Z,5.60
2023-02-09T10:13:55.183Z,5.70
2023-02-09T10:16:24.841Z,5.70
2023-02-09T10:19:00.646Z,5.60
2023-02-09T10:21:36.831Z,5.60
2023-02-09T10:24:16.308Z,5.70
2023-02-09T10:26:43.271Z,5.80
2023-02-09T10:29:13.037Z,5.70
2023-02-09T10:31:46.730Z,5.70
2023-02-09T10:34:16.665Z,5.90
2023-02-09T10:36:51.343Z,6.00
2023-02-09T10:39:28.408Z,6.10
2023-02-09T10:41:59.451Z,6.10
2023-02-09T10:44:33.648Z,6.10
2023-02-09T10:47:27.161Z,6.20
2023-02-09T10:50:01.736Z,6.20
2023-02-09T10:52:36.845Z,6.30
2023-02-09T10:55:17.145Z,6.30
2023-02-09T10:57:44.060Z,6.30
2023-02-09T11:00:17.018Z,6.40
2023-02-09T11:02:57.649Z,6.40
2023-02-09T11:05:39.038Z,6.40
2023-02-09T11:08:20.577Z,6.40
2023-02-09T11:11:05.730Z,6.50
2023-02-09T11:13:33.872Z,6.60
2023-02-09T11:16:09.949Z,6.50
2023-02-09T11:18:37.038Z,6.60
2023-02-09T11:21:58.358Z,6.60
2023-02-09T11:24:43.639Z,6.70
2023-02-09T11:27:51.441Z,6.70
2023-02-09T11:30:20.999Z,6.90
2023-02-09T11:33:03.717Z,7.20
2023-02-09T11:36:08.413Z,7.30
2023-02-09T11:38:50.380Z,7.30
2023-02-09T11:41:52.014Z,7.20
2023-02-09T11:44:42.742Z,7.30
2023-02-09T11:47:22.701Z,7.20
2023-02-09T11:49:52.210Z,7.20
2023-02-09T11:52:28.589Z,7.30
2023-02-09T11:55:02.349Z,7.50
2023-02-09T11:57:36.668Z,7.70
2023-02-09T12:00:11.290Z,7.70
2023-02-09T12:03:11.816Z,7.60
2023-02-09T12:05:40.575Z,7.50
2023-02-09T12:08:46.158Z,7.60
2023-02-09T12:11:20.755Z,7.60
2023-02-09T12:14:02.929Z,7.80
2023-02-09T12:16:36.922Z,8.00
2023-02-09T12:19:05.853Z,8.00
2023-02-09T12:21:38.188Z,8.00
2023-02-09T12:24:28.010Z,8.00
2023-02-09T12:26:57.546Z,8.00
2023-02-09T12:29:35.190Z,8.10
2023-02-09T12:32:04.860Z,8.30
2023-02-09T12:34:46.950Z,8.40
2023-02-09T12:37:13.789Z,8.30
2023-02-09T12:40:02.259Z,8.30
2023-02-09T12:42:38.681Z,8.40
2023-02-09T12:45:36.881Z,8.60
2023-02-09T12:48:09.992Z,8.60
2023-02-09T12:50:42.720Z,8.50
2023-02-09T12:53:31.738Z,8.50
2023-02-09T12:56:09.031Z,8.50
2023-02-09T12:58:45.126Z,8.70
2023-02-09T13:01:14.468Z,8.90
2023-02-09T13:04:05.701Z,8.80
2023-02-09T13:06:48.954Z,8.60
2023-02-09T13:09:28.481Z,8.60
2023-02-09T13:12:06.043Z,8.90
2023-02-09T13:14:33.204Z,8.90
2023-02-09T13:17:08.970Z,9.10
2023-02-09T13:19:57.674Z,9.20
2023-02-09T13:22:27.594Z,9.30
2023-02-09T13:25:01.880Z,9.40
2023-02-09T13:27:29.570Z,9.20
2023-02-09T13:29:58.419Z,9.30
2023-02-09T13:32:48.710Z,9.30
2023-02-09T13:35:41.242Z,9.20
2023-02-09T13:38:17.423Z,9.10
2023-02-09T13:40:49.474Z,9.10
2023-02-09T13:43:33.471Z,9.10
2023-02-09T13:46:02.075Z,9.10
2023-02-09T13:48:30.378Z,9.20
2023-02-09T13:51:00.909Z,9.30
2023-02-09T13:53:30.006Z,9.40
2023-02-09T13:56:00.214Z,9.40
2023-02-09T13:58:35.458Z,9.50
2023-02-09T14:01:14.044Z,9.50
2023-02-09T14:03:58.240Z,9.50
2023-02-09T14:06:52.774Z,9.20
2023-02-09T14:09:38.250Z,8.90
2023-02-09T14:12:15.317Z,8.70
2023-02-09T14:15:07.502Z,9.00
2023-02-09T14:17:39.077Z,9.00
2023-02-09T14:20:21.745Z,9.10
2023-02-09T14:22:58.678Z,9.20
2023-02-09T14:25:29.112Z,9.30
2023-02-09T14:27:56.963Z,9.60
2023-02-09T14:30:31.525Z,9.70
2023-02-09T14:33:00.514Z,10.00
2023-02-09T14:35:39.815Z,10.30
2023-02-09T14:38:39.851Z,10.40
2023-02-09T14:41:29.106Z,9.60
2023-02-09T14:44:20.449Z,9.40
2023-02-09T14:47:01.496Z,10.10
2023-02-09T14:49:29.393Z,10.60
2023-02-09T14:52:13.566Z,10.90
2023-02-09T14:54:47.158Z,11.00
2023-02-09T14:57:14.173Z,11.10
2023-02-09T14:59:40.957Z,11.20
2023-02-09T15:02:19.189Z,11.40
2023-02-09T15:04:46.578Z,11.30
2023-02-09T15:07:20.160Z,11.30
2023-02-09T15:09:50.530Z,11.40
2023-02-09T15:12:26.730Z,11.50
2023-02-09T15:14:58.818Z,11.00
2023-02-09T15:17:28.896Z,10.70
2023-02-09T15:19:57.441Z,10.40
2023-02-09T15:22:27.167Z,10.20
2023-02-09T15:24:54.674Z,10.10
2023-02-09T15:27:28.544Z,10.10
2023-02-09T15:29:58.972Z,10.00
2023-02-09T15:32:27.398Z,9.90
2023-02-09T15:34:54.554Z,9.80
2023-02-09T15:37:28.529Z,9.70
2023-02-09T15:40:01.137Z,9.70
2023-02-09T15:42:46.662Z,9.50
2023-02-09T15:45:41.106Z,9.60
2023-02-09T15:48:08.916Z,9.50
2023-02-09T15:50:40.193Z,9.40
2023-02-09T15:53:12.601Z,9.40
2023-02-09T15:55:40.604Z,9.10
2023-02-09T15:58:35.394Z,9.00
2023-02-09T16:01:04.197Z,9.00
2023-02-09T16:03:33.730Z,8.90
2023-02-09T16:06:03.827Z,9.00
2023-02-09T16:08:37.734Z,9.10
2023-02-09T16:11:09.522Z,9.00
2023-02-09T16:13:39.064Z,9.10
2023-02-09T16:16:16.776Z,8.90
2023-02-09T16:18:46.345Z,8.90
2023-02-09T16:21:33.510Z,8.90
2023-02-09T16:24:05.878Z,8.80
2023-02-09T16:26:33.902Z,8.80
2023-02-09T16:29:00.798Z,8.80
2023-02-09T16:31:27.632Z,8.80
2023-02-09T16:33:54.481Z,8.80
2023-02-09T16:36:24.074Z,8.90
2023-02-09T16:38:50.996Z,8.90
2023-02-09T16:41:37.995Z,8.80
2023-02-09T16:44:25.948Z,8.60
2023-02-09T16:46:55.240Z,8.40
2023-02-09T16:49:43.296Z,8.30
2023-02-09T16:52:20.646Z,8.10
2023-02-09T16:54:53.551Z,8.00
2023-02-09T16:57:23.299Z,8.00
2023-02-09T16:59:54.129Z,8.20
2023-02-09T17:02:27.146Z,8.50
2023-02-09T17:04:54.078Z,8.30
2023-02-09T17:07:24.485Z,7.90
2023-02-09T17:09:51.304Z,7.70
2023-02-09T17:12:18.151Z,7.60
2023-02-09T17:14:44.947Z,7.40
2023-02-09T17:17:19.185Z,7.50
2023-02-09T17:19:48.154Z,7.60
2023-02-09T17:22:16.181Z,7.60
2023-02-09T17:24:43.049Z,7.70
2023-02-09T17:27:10.176Z,7.70
2023-02-09T17:29:37.034Z,7.70
2023-02-09T17:32:07.267Z,7.50
2023-02-09T17:34:34.125Z,7.30
2023-02-09T17:37:01.015Z,7.10
2023-02-09T17:39:30.003Z,7.20
2023-02-09T17:41:59.648Z,7.30
2023-02-09T17:44:44.664Z,7.40
2023-02-09T17:47:19.926Z,7.40
2023-02-09T17:49:46.889Z,7.30
2023-02-09T17:52:18.296Z,7.30
2023-02-09T17:54:45.680Z,7.20
2023-02-09T17:57:17.109Z,7.40
2023-02-09T17:59:46.066Z,7.40
2023-02-09T18:02:15.885Z,7.20
2023-02-09T18:04:44.991Z,7.20
2023-02-09T18:07:13.956Z,7.70
2023-02-09T18:09:40.854Z,8.30
2023-02-09T18:12:17.139Z,8.80
2023-02-09T18:14:43.990Z,9.00
2023-02-09T18:17:10.943Z,8.60
2023-02-09T18:19:37.959Z,8.20
2023-02-09T18:22:05.022Z,7.90
2023-02-09T18:24:34.728Z,7.60
2023-02-09T18:27:02.162Z,7.30
2023-02-09T18:29:30.278Z,7.20
2023-02-09T18:32:02.094Z,7.10
2023-02-09T18:34:29.623Z,7.10
2023-02-09T18:36:56.538Z,7.00
2023-02-09T18:39:23.479Z,7.00
2023-02-09T18:41:54.548Z,6.80
2023-02-09T18:44:31.234Z,6.60
2023-02-09T18:47:02.332Z,6.50
2023-02-09T18:49:29.896Z,6.50
2023-02-09T18:51:59.578Z,6.40
2023-02-09T18:54:28.897Z,6.40
2023-02-09T18:56:56.425Z,6.40
2023-02-09T18:59:26.954Z,6.50
2023-02-09T19:01:54.811Z,6.40
2023-02-09T19:04:21.779Z,6.50
2023-02-09T19:06:48.613Z,6.40
2023-02-09T19:09:15.405Z,6.20
2023-02-09T19:11:42.279Z,6.00
2023-02-09T19:14:27.818Z,5.90
2023-02-09T19:16:54.702Z,5.80
2023-02-09T19:19:24.655Z,5.70
2023-02-09T19:21:52.174Z,5.90
2023-02-09T19:24:19.647Z,5.90
2023-02-09T19:26:49.513Z,5.90
2023-02-09T19:29:16.819Z,5.90
2023-02-09T19:31:43.821Z,5.80
2023-02-09T19:34:13.451Z,5.80
2023-02-09T19:36:40.237Z,5.90
2023-02-09T19:39:07.075Z,5.70
2023-02-09T19:41:33.966Z,5.80
2023-02-09T19:44:00.770Z,5.80
2023-02-09T19:46:27.582Z,5.70
2023-02-09T19:48:54.505Z,5.80
2023-02-09T19:51:21.826Z,5.70
2023-02-09T19:53:49.000Z,5.60
2023-02-09T19:56:17.700Z,5.60
2023-02-09T19:58:45.371Z,5.50
2023-02-09T20:01:12.983Z,5.40
2023-02-09T20:03:41.959Z,5.50
2023-02-09T20:06:10.817Z,5.50
2023-02-09T20:08:38.453Z,5.50
2023-02-09T20:11:11.102Z,5.50
2023-02-09T20:13:38.378Z,5.50
2023-02-09T20:16:14.434Z,5.50
2023-02-09T20:18:46.735Z,5.60
2023-02-09T20:21:13.549Z,5.60
2023-02-09T20:23:43.951Z,5.80
2023-02-09T20:26:16.134Z,6.70
2023-02-09T20:28:43.102Z,7.50
2023-02-09T20:31:10.412Z,7.90
2023-02-09T20:33:39.095Z,8.10
2023-02-09T20:36:07.909Z,8.10
2023-02-09T20:38:36.983Z,7.50
2023-02-09T20:41:12.527Z,7.10
2023-02-09T20:43:58.628Z,6.60
2023-02-09T20:46:46.229Z,6.30
2023-02-09T20:49:16.344Z,5.80
2023-02-09T20:51:44.441Z,5.70
2023-02-09T20:54:11.963Z,5.70
2023-02-09T20:56:39.289Z,5.60
2023-02-09T20:59:06.816Z,5.50
2023-02-09T21:01:35.776Z,5.50
2023-02-09T21:04:02.830Z,5.40
2023-02-09T21:06:29.806Z,5.00
2023-02-09T21:08:56.640Z,5.30
2023-02-09T21:11:23.574Z,5.30
2023-02-09T21:13:50.468Z,5.40
2023-02-09T21:16:17.854Z,5.40
2023-02-09T21:18:45.746Z,5.20
2023-02-09T21:21:16.148Z,5.10
2023-02-09T21:23:44.660Z,5.20
2023-02-09T21:26:18.296Z,5.30
2023-02-09T21:28:45.539Z,5.30
2023-02-09T21:31:14.281Z,5.30
2023-02-09T21:33:41.334Z,5.30
2023-02-09T21:36:08.817Z,5.10
2023-02-09T21:38:41.503Z,5.20
2023-02-09T21:41:35.486Z,5.30
2023-02-09T21:44:02.602Z,5.30
2023-02-09T21:46:29.886Z,5.30
2023-02-09T21:48:56.723Z,5.20
2023-02-09T21:51:23.661Z,4.90
